sensor_id;sensor_type;location;lat;lon;timestamp;P1;durP1;ratioP1;P2;durP2;ratioP2
44430;SDS011;30135;47.866;-4.222;2023-03-23T00:00:09;47.17;;;6.93;;
44430;SDS011;30135;47.866;-4.222;2023-03-23T00:02:35;41.55;;;6.50;;
44430;SDS011;30135;47.866;-4.222;2023-03-23T00:05:03;66.30;;;8.60;;
44430;SDS011;30135;47.866;-4.222;2023-03-23T00:07:33;41.78;;;7.55;;
44430;SDS011;30135;47.866;-4.222;2023-03-23T00:10:00;45.53;;;7.55;;
44430;SDS011;30135;47.866;-4.222;2023-03-23T00:12:28;41.17;;;5.93;;
44430;SDS011;30135;47.866;-4.222;2023-03-23T00:15:00;54.72;;;6.90;;
44430;SDS011;30135;47.866;-4.222;2023-03-23T00:17:30;50.63;;;6.63;;
44430;SDS011;30135;47.866;-4.222;2023-03-23T00:24:56;35.75;;;5.97;;
44430;SDS011;30135;47.866;-4.222;2023-03-23T00:27:22;40.72;;;6.60;;
44430;SDS011;30135;47.866;-4.222;2023-03-23T00:29:51;39.47;;;5.88;;
44430;SDS011;30135;47.866;-4.222;2023-03-23T00:32:18;40.60;;;5.23;;
44430;SDS011;30135;47.866;-4.222;2023-03-23T00:34:46;38.13;;;4.97;;
44430;SDS011;30135;47.866;-4.222;2023-03-23T00:37:14;42.97;;;5.60;;
44430;SDS011;30135;47.866;-4.222;2023-03-23T00:39:44;34.38;;;5.00;;
44430;SDS011;30135;47.866;-4.222;2023-03-23T00:42:15;39.72;;;5.57;;
44430;SDS011;30135;47.866;-4.222;2023-03-23T00:44:41;27.25;;;3.60;;
44430;SDS011;30135;47.866;-4.222;2023-03-23T00:47:11;24.83;;;4.68;;
44430;SDS011;30135;47.866;-4.222;2023-03-23T00:49:37;34.65;;;4.53;;
44430;SDS011;30135;47.866;-4.222;2023-03-23T00:52:04;36.35;;;4.75;;
44430;SDS011;30135;47.866;-4.222;2023-03-23T00:54:31;22.83;;;5.65;;
44430;SDS011;30135;47.866;-4.222;2023-03-23T00:56:59;44.20;;;5.80;;
44430;SDS011;30135;47.866;-4.222;2023-03-23T00:59:25;45.65;;;5.38;;
44430;SDS011;30135;47.866;-4.222;2023-03-23T01:01:51;34.55;;;5.05;;
44430;SDS011;30135;47.866;-4.222;2023-03-23T01:04:17;34.50;;;3.95;;
44430;SDS011;30135;47.866;-4.222;2023-03-23T01:06:44;29.13;;;6.20;;
44430;SDS011;30135;47.866;-4.222;2023-03-23T01:09:19;34.45;;;4.88;;
44430;SDS011;30135;47.866;-4.222;2023-03-23T01:11:49;34.30;;;5.30;;
44430;SDS011;30135;47.866;-4.222;2023-03-23T01:14:20;30.92;;;5.97;;
44430;SDS011;30135;47.866;-4.222;2023-03-23T01:16:47;30.92;;;4.88;;
44430;SDS011;30135;47.866;-4.222;2023-03-23T01:19:12;39.17;;;5.03;;
44430;SDS011;30135;47.866;-4.222;2023-03-23T01:21:40;38.58;;;5.07;;
44430;SDS011;30135;47.866;-4.222;2023-03-23T01:24:07;40.97;;;6.35;;
44430;SDS011;30135;47.866;-4.222;2023-03-23T01:26:33;41.97;;;6.05;;
44430;SDS011;30135;47.866;-4.222;2023-03-23T01:28:59;43.58;;;5.47;;
44430;SDS011;30135;47.866;-4.222;2023-03-23T01:31:25;54.65;;;7.00;;
44430;SDS011;30135;47.866;-4.222;2023-03-23T01:33:52;36.10;;;7.18;;
44430;SDS011;30135;47.866;-4.222;2023-03-23T01:36:25;54.08;;;7.32;;
44430;SDS011;30135;47.866;-4.222;2023-03-23T01:39:00;59.45;;;6.95;;
44430;SDS011;30135;47.866;-4.222;2023-03-23T01:41:29;47.45;;;7.07;;
44430;SDS011;30135;47.866;-4.222;2023-03-23T01:44:06;38.00;;;6.15;;
44430;SDS011;30135;47.866;-4.222;2023-03-23T01:46:55;43.17;;;8.15;;
44430;SDS011;30135;47.866;-4.222;2023-03-23T01:49:26;46.35;;;6.72;;
44430;SDS011;30135;47.866;-4.222;2023-03-23T01:51:58;60.58;;;6.60;;
44430;SDS011;30135;47.866;-4.222;2023-03-23T01:54:29;42.40;;;8.23;;
44430;SDS011;30135;47.866;-4.222;2023-03-23T01:56:59;43.78;;;7.50;;
44430;SDS011;30135;47.866;-4.222;2023-03-23T01:59:33;58.85;;;8.10;;
44430;SDS011;30135;47.866;-4.222;2023-03-23T02:02:00;56.40;;;8.55;;
44430;SDS011;30135;47.866;-4.222;2023-03-23T02:04:27;43.50;;;5.80;;
44430;SDS011;30135;47.866;-4.222;2023-03-23T02:06:54;45.03;;;5.68;;
44430;SDS011;30135;47.866;-4.222;2023-03-23T02:09:24;49.05;;;6.95;;
44430;SDS011;30135;47.866;-4.222;2023-03-23T02:11:51;52.22;;;7.13;;
44430;SDS011;30135;47.866;-4.222;2023-03-23T02:14:19;43.60;;;5.90;;
44430;SDS011;30135;47.866;-4.222;2023-03-23T02:24:51;46.53;;;6.10;;
44430;SDS011;30135;47.866;-4.222;2023-03-23T02:33:44;47.20;;;8.20;;
44430;SDS011;30135;47.866;-4.222;2023-03-23T02:39:12;56.60;;;7.55;;
44430;SDS011;30135;47.866;-4.222;2023-03-23T02:44:21;56.60;;;6.63;;
44430;SDS011;30135;47.866;-4.222;2023-03-23T02:47:00;52.97;;;7.15;;
44430;SDS011;30135;47.866;-4.222;2023-03-23T02:49:31;60.70;;;7.90;;
44430;SDS011;30135;47.866;-4.222;2023-03-23T02:52:02;51.17;;;6.97;;
44430;SDS011;30135;47.866;-4.222;2023-03-23T02:54:44;50.08;;;8.25;;
44430;SDS011;30135;47.866;-4.222;2023-03-23T02:57:12;36.13;;;6.72;;
44430;SDS011;30135;47.866;-4.222;2023-03-23T02:59:39;67.93;;;9.27;;
44430;SDS011;30135;47.866;-4.222;2023-03-23T03:04:57;58.20;;;6.63;;
44430;SDS011;30135;47.866;-4.222;2023-03-23T03:07:33;60.20;;;9.35;;
44430;SDS011;30135;47.866;-4.222;2023-03-23T03:15:45;44.92;;;7.95;;
44430;SDS011;30135;47.866;-4.222;2023-03-23T03:18:33;52.97;;;7.40;;
44430;SDS011;30135;47.866;-4.222;2023-03-23T03:21:27;58.65;;;8.65;;
44430;SDS011;30135;47.866;-4.222;2023-03-23T03:23:58;87.00;;;10.07;;
44430;SDS011;30135;47.866;-4.222;2023-03-23T03:26:29;57.13;;;8.73;;
44430;SDS011;30135;47.866;-4.222;2023-03-23T03:28:59;70.15;;;7.55;;
44430;SDS011;30135;47.866;-4.222;2023-03-23T03:31:30;67.05;;;8.15;;
44430;SDS011;30135;47.866;-4.222;2023-03-23T03:34:02;51.05;;;8.05;;
44430;SDS011;30135;47.866;-4.222;2023-03-23T03:36:29;71.45;;;9.70;;
44430;SDS011;30135;47.866;-4.222;2023-03-23T03:39:07;60.58;;;7.03;;
44430;SDS011;30135;47.866;-4.222;2023-03-23T03:41:35;65.90;;;9.20;;
44430;SDS011;30135;47.866;-4.222;2023-03-23T03:44:05;59.45;;;9.00;;
44430;SDS011;30135;47.866;-4.222;2023-03-23T03:46:32;54.17;;;7.38;;
44430;SDS011;30135;47.866;-4.222;2023-03-23T03:49:00;58.97;;;8.88;;
44430;SDS011;30135;47.866;-4.222;2023-03-23T03:51:29;57.08;;;7.65;;
44430;SDS011;30135;47.866;-4.222;2023-03-23T03:54:02;42.28;;;8.07;;
44430;SDS011;30135;47.866;-4.222;2023-03-23T03:56:28;55.00;;;9.05;;
44430;SDS011;30135;47.866;-4.222;2023-03-23T03:58:56;49.15;;;7.38;;
44430;SDS011;30135;47.866;-4.222;2023-03-23T04:01:22;51.60;;;8.50;;
44430;SDS011;30135;47.866;-4.222;2023-03-23T04:03:49;50.75;;;8.75;;
44430;SDS011;30135;47.866;-4.222;2023-03-23T04:06:16;65.10;;;9.20;;
44430;SDS011;30135;47.866;-4.222;2023-03-23T04:08:43;60.28;;;7.53;;
44430;SDS011;30135;47.866;-4.222;2023-03-23T04:11:11;53.65;;;7.68;;
44430;SDS011;30135;47.866;-4.222;2023-03-23T04:13:39;49.92;;;8.23;;
44430;SDS011;30135;47.866;-4.222;2023-03-23T04:16:05;48.15;;;8.57;;
44430;SDS011;30135;47.866;-4.222;2023-03-23T04:18:32;65.38;;;7.93;;
44430;SDS011;30135;47.866;-4.222;2023-03-23T04:20:59;87.50;;;11.30;;
44430;SDS011;30135;47.866;-4.222;2023-03-23T04:23:27;48.15;;;6.95;;
44430;SDS011;30135;47.866;-4.222;2023-03-23T04:25:56;55.10;;;11.32;;
44430;SDS011;30135;47.866;-4.222;2023-03-23T04:28:25;64.45;;;8.85;;
44430;SDS011;30135;47.866;-4.222;2023-03-23T04:30:53;60.83;;;7.95;;
44430;SDS011;30135;47.866;-4.222;2023-03-23T04:33:20;59.38;;;8.95;;
44430;SDS011;30135;47.866;-4.222;2023-03-23T04:35:50;46.53;;;7.72;;
44430;SDS011;30135;47.866;-4.222;2023-03-23T04:38:18;57.47;;;8.68;;
44430;SDS011;30135;47.866;-4.222;2023-03-23T04:43:16;59.67;;;7.32;;
44430;SDS011;30135;47.866;-4.222;2023-03-23T04:45:52;52.13;;;6.43;;
44430;SDS011;30135;47.866;-4.222;2023-03-23T04:48:24;66.93;;;8.73;;
44430;SDS011;30135;47.866;-4.222;2023-03-23T04:50:52;46.17;;;7.65;;
44430;SDS011;30135;47.866;-4.222;2023-03-23T04:53:19;60.55;;;7.25;;
44430;SDS011;30135;47.866;-4.222;2023-03-23T04:55:46;41.90;;;6.88;;
44430;SDS011;30135;47.866;-4.222;2023-03-23T04:58:13;55.08;;;8.70;;
44430;SDS011;30135;47.866;-4.222;2023-03-23T05:00:41;51.45;;;8.25;;
44430;SDS011;30135;47.866;-4.222;2023-03-23T05:03:14;47.28;;;7.90;;
44430;SDS011;30135;47.866;-4.222;2023-03-23T05:05:42;49.42;;;6.35;;
44430;SDS011;30135;47.866;-4.222;2023-03-23T05:08:17;51.83;;;7.03;;
44430;SDS011;30135;47.866;-4.222;2023-03-23T05:10:54;45.72;;;6.22;;
44430;SDS011;30135;47.866;-4.222;2023-03-23T05:13:23;61.53;;;11.02;;
44430;SDS011;30135;47.866;-4.222;2023-03-23T05:15:50;56.13;;;8.13;;
44430;SDS011;30135;47.866;-4.222;2023-03-23T05:18:16;43.85;;;7.40;;
44430;SDS011;30135;47.866;-4.222;2023-03-23T05:20:42;50.25;;;6.13;;
44430;SDS011;30135;47.866;-4.222;2023-03-23T05:23:08;55.40;;;8.15;;
44430;SDS011;30135;47.866;-4.222;2023-03-23T05:25:35;47.60;;;7.13;;
44430;SDS011;30135;47.866;-4.222;2023-03-23T05:30:32;67.20;;;6.88;;
44430;SDS011;30135;47.866;-4.222;2023-03-23T05:33:03;55.45;;;8.02;;
44430;SDS011;30135;47.866;-4.222;2023-03-23T05:35:29;45.50;;;8.73;;
44430;SDS011;30135;47.866;-4.222;2023-03-23T05:37:56;54.22;;;8.52;;
44430;SDS011;30135;47.866;-4.222;2023-03-23T05:40:22;51.58;;;7.30;;
44430;SDS011;30135;47.866;-4.222;2023-03-23T05:42:50;51.97;;;7.80;;
44430;SDS011;30135;47.866;-4.222;2023-03-23T05:45:17;63.70;;;9.27;;
44430;SDS011;30135;47.866;-4.222;2023-03-23T05:47:44;58.70;;;7.78;;
44430;SDS011;30135;47.866;-4.222;2023-03-23T05:50:11;51.00;;;9.07;;
44430;SDS011;30135;47.866;-4.222;2023-03-23T05:52:38;48.97;;;7.80;;
44430;SDS011;30135;47.866;-4.222;2023-03-23T05:55:04;62.35;;;7.85;;
44430;SDS011;30135;47.866;-4.222;2023-03-23T05:57:33;56.85;;;7.30;;
44430;SDS011;30135;47.866;-4.222;2023-03-23T05:59:59;57.22;;;9.30;;
44430;SDS011;30135;47.866;-4.222;2023-03-23T06:02:31;53.70;;;8.40;;
44430;SDS011;30135;47.866;-4.222;2023-03-23T06:04:57;66.38;;;8.02;;
44430;SDS011;30135;47.866;-4.222;2023-03-23T06:07:24;63.67;;;7.68;;
44430;SDS011;30135;47.866;-4.222;2023-03-23T06:09:50;41.83;;;9.43;;
44430;SDS011;30135;47.866;-4.222;2023-03-23T06:12:17;69.28;;;8.88;;
44430;SDS011;30135;47.866;-4.222;2023-03-23T06:14:45;58.60;;;8.68;;
44430;SDS011;30135;47.866;-4.222;2023-03-23T06:19:42;42.50;;;6.25;;
44430;SDS011;30135;47.866;-4.222;2023-03-23T06:22:10;45.05;;;8.05;;
44430;SDS011;30135;47.866;-4.222;2023-03-23T06:24:36;41.13;;;6.72;;
44430;SDS011;30135;47.866;-4.222;2023-03-23T06:27:02;64.28;;;8.77;;
44430;SDS011;30135;47.866;-4.222;2023-03-23T06:29:28;49.72;;;8.20;;
44430;SDS011;30135;47.866;-4.222;2023-03-23T06:31:56;49.28;;;7.63;;
44430;SDS011;30135;47.866;-4.222;2023-03-23T06:34:26;71.63;;;9.43;;
44430;SDS011;30135;47.866;-4.222;2023-03-23T06:36:52;62.17;;;9.45;;
44430;SDS011;30135;47.866;-4.222;2023-03-23T06:39:18;52.10;;;8.00;;
44430;SDS011;30135;47.866;-4.222;2023-03-23T06:41:44;58.03;;;8.27;;
44430;SDS011;30135;47.866;-4.222;2023-03-23T06:44:10;65.82;;;8.15;;
44430;SDS011;30135;47.866;-4.222;2023-03-23T06:46:38;77.35;;;8.90;;
44430;SDS011;30135;47.866;-4.222;2023-03-23T06:49:06;61.90;;;7.50;;
44430;SDS011;30135;47.866;-4.222;2023-03-23T06:51:33;65.80;;;9.05;;
44430;SDS011;30135;47.866;-4.222;2023-03-23T06:53:59;57.20;;;7.13;;
44430;SDS011;30135;47.866;-4.222;2023-03-23T06:56:25;64.50;;;8.15;;
44430;SDS011;30135;47.866;-4.222;2023-03-23T06:58:51;59.75;;;7.35;;
44430;SDS011;30135;47.866;-4.222;2023-03-23T07:01:18;44.75;;;8.75;;
44430;SDS011;30135;47.866;-4.222;2023-03-23T07:03:44;51.70;;;6.93;;
44430;SDS011;30135;47.866;-4.222;2023-03-23T07:06:10;56.47;;;8.60;;
44430;SDS011;30135;47.866;-4.222;2023-03-23T07:08:37;60.97;;;7.95;;
44430;SDS011;30135;47.866;-4.222;2023-03-23T07:11:03;47.58;;;6.80;;
44430;SDS011;30135;47.866;-4.222;2023-03-23T07:13:30;75.63;;;9.20;;
44430;SDS011;30135;47.866;-4.222;2023-03-23T07:15:57;52.70;;;8.43;;
44430;SDS011;30135;47.866;-4.222;2023-03-23T07:18:23;43.40;;;5.63;;
44430;SDS011;30135;47.866;-4.222;2023-03-23T07:20:50;47.30;;;7.63;;
44430;SDS011;30135;47.866;-4.222;2023-03-23T07:23:17;48.35;;;6.45;;
44430;SDS011;30135;47.866;-4.222;2023-03-23T07:25:44;34.90;;;7.45;;
44430;SDS011;30135;47.866;-4.222;2023-03-23T07:28:13;52.50;;;7.07;;
44430;SDS011;30135;47.866;-4.222;2023-03-23T07:30:40;59.17;;;8.70;;
44430;SDS011;30135;47.866;-4.222;2023-03-23T07:33:12;46.83;;;7.45;;
44430;SDS011;30135;47.866;-4.222;2023-03-23T07:35:38;51.05;;;8.70;;
44430;SDS011;30135;47.866;-4.222;2023-03-23T07:38:05;64.72;;;6.95;;
44430;SDS011;30135;47.866;-4.222;2023-03-23T07:40:32;57.33;;;9.85;;
44430;SDS011;30135;47.866;-4.222;2023-03-23T07:42:58;59.67;;;7.68;;
44430;SDS011;30135;47.866;-4.222;2023-03-23T07:45:25;70.13;;;7.32;;
44430;SDS011;30135;47.866;-4.222;2023-03-23T07:47:53;58.63;;;7.80;;
44430;SDS011;30135;47.866;-4.222;2023-03-23T07:50:19;50.28;;;7.20;;
44430;SDS011;30135;47.866;-4.222;2023-03-23T07:52:50;44.38;;;6.18;;
44430;SDS011;30135;47.866;-4.222;2023-03-23T07:55:18;46.65;;;5.35;;
44430;SDS011;30135;47.866;-4.222;2023-03-23T07:57:45;47.15;;;6.80;;
44430;SDS011;30135;47.866;-4.222;2023-03-23T08:00:15;45.55;;;6.32;;
44430;SDS011;30135;47.866;-4.222;2023-03-23T08:02:48;53.08;;;6.93;;
44430;SDS011;30135;47.866;-4.222;2023-03-23T08:05:20;62.78;;;8.52;;
44430;SDS011;30135;47.866;-4.222;2023-03-23T08:07:47;36.45;;;6.55;;
44430;SDS011;30135;47.866;-4.222;2023-03-23T08:10:14;53.70;;;6.43;;
44430;SDS011;30135;47.866;-4.222;2023-03-23T08:12:45;37.03;;;5.65;;
44430;SDS011;30135;47.866;-4.222;2023-03-23T08:15:12;49.50;;;6.00;;
44430;SDS011;30135;47.866;-4.222;2023-03-23T08:17:39;37.95;;;5.88;;
44430;SDS011;30135;47.866;-4.222;2023-03-23T08:20:07;46.90;;;7.05;;
44430;SDS011;30135;47.866;-4.222;2023-03-23T08:22:38;49.20;;;5.75;;
44430;SDS011;30135;47.866;-4.222;2023-03-23T08:25:06;41.10;;;6.10;;
44430;SDS011;30135;47.866;-4.222;2023-03-23T08:27:34;28.35;;;5.55;;
44430;SDS011;30135;47.866;-4.222;2023-03-23T08:30:02;58.28;;;6.88;;
44430;SDS011;30135;47.866;-4.222;2023-03-23T08:32:30;39.10;;;6.53;;
44430;SDS011;30135;47.866;-4.222;2023-03-23T08:34:56;50.80;;;6.30;;
44430;SDS011;30135;47.866;-4.222;2023-03-23T08:37:23;34.88;;;5.78;;
44430;SDS011;30135;47.866;-4.222;2023-03-23T08:39:53;28.67;;;5.38;;
44430;SDS011;30135;47.866;-4.222;2023-03-23T08:42:20;34.97;;;7.05;;
44430;SDS011;30135;47.866;-4.222;2023-03-23T08:44:49;48.08;;;8.48;;
44430;SDS011;30135;47.866;-4.222;2023-03-23T08:47:16;36.50;;;6.35;;
44430;SDS011;30135;47.866;-4.222;2023-03-23T08:49:43;38.20;;;5.15;;
44430;SDS011;30135;47.866;-4.222;2023-03-23T08:52:10;35.40;;;5.85;;
44430;SDS011;30135;47.866;-4.222;2023-03-23T08:54:36;36.50;;;4.88;;
44430;SDS011;30135;47.866;-4.222;2023-03-23T08:57:03;29.70;;;5.18;;
44430;SDS011;30135;47.866;-4.222;2023-03-23T08:59:29;35.03;;;6.13;;
44430;SDS011;30135;47.866;-4.222;2023-03-23T09:02:03;37.55;;;5.05;;
44430;SDS011;30135;47.866;-4.222;2023-03-23T09:04:43;33.22;;;5.35;;
44430;SDS011;30135;47.866;-4.222;2023-03-23T09:07:09;31.25;;;6.60;;
44430;SDS011;30135;47.866;-4.222;2023-03-23T09:09:39;40.90;;;5.50;;
44430;SDS011;30135;47.866;-4.222;2023-03-23T09:12:06;38.40;;;6.28;;
44430;SDS011;30135;47.866;-4.222;2023-03-23T09:14:34;32.05;;;5.32;;
44430;SDS011;30135;47.866;-4.222;2023-03-23T09:17:02;33.05;;;5.75;;
44430;SDS011;30135;47.866;-4.222;2023-03-23T09:19:30;48.40;;;4.93;;
44430;SDS011;30135;47.866;-4.222;2023-03-23T09:21:58;41.92;;;7.07;;
44430;SDS011;30135;47.866;-4.222;2023-03-23T09:24:25;33.03;;;5.97;;
44430;SDS011;30135;47.866;-4.222;2023-03-23T09:26:52;30.73;;;4.20;;
44430;SDS011;30135;47.866;-4.222;2023-03-23T09:29:18;33.63;;;4.63;;
44430;SDS011;30135;47.866;-4.222;2023-03-23T09:31:46;28.45;;;3.85;;
44430;SDS011;30135;47.866;-4.222;2023-03-23T09:34:13;40.53;;;6.03;;
44430;SDS011;30135;47.866;-4.222;2023-03-23T09:36:41;27.17;;;4.80;;
44430;SDS011;30135;47.866;-4.222;2023-03-23T09:39:08;27.65;;;4.57;;
44430;SDS011;30135;47.866;-4.222;2023-03-23T09:47:37;37.90;;;5.45;;
44430;SDS011;30135;47.866;-4.222;2023-03-23T09:51:49;35.85;;;5.72;;
44430;SDS011;30135;47.866;-4.222;2023-03-23T09:54:13;32.90;;;5.35;;
44430;SDS011;30135;47.866;-4.222;2023-03-23T09:56:43;28.45;;;4.55;;
44430;SDS011;30135;47.866;-4.222;2023-03-23T09:59:26;45.40;;;6.35;;
44430;SDS011;30135;47.866;-4.222;2023-03-23T10:02:24;31.10;;;4.95;;
44430;SDS011;30135;47.866;-4.222;2023-03-23T10:04:56;29.45;;;4.65;;
44430;SDS011;30135;47.866;-4.222;2023-03-23T10:07:40;57.90;;;6.10;;
44430;SDS011;30135;47.866;-4.222;2023-03-23T10:10:08;41.47;;;5.55;;
44430;SDS011;30135;47.866;-4.222;2023-03-23T10:12:42;33.63;;;5.00;;
44430;SDS011;30135;47.866;-4.222;2023-03-23T10:15:16;38.35;;;5.70;;
44430;SDS011;30135;47.866;-4.222;2023-03-23T10:17:56;38.95;;;6.32;;
44430;SDS011;30135;47.866;-4.222;2023-03-23T10:20:48;43.55;;;6.20;;
44430;SDS011;30135;47.866;-4.222;2023-03-23T10:26:28;40.95;;;5.68;;
44430;SDS011;30135;47.866;-4.222;2023-03-23T10:32:00;39.38;;;6.35;;
44430;SDS011;30135;47.866;-4.222;2023-03-23T10:35:07;44.13;;;6.63;;
44430;SDS011;30135;47.866;-4.222;2023-03-23T10:37:46;46.25;;;5.68;;
44430;SDS011;30135;47.866;-4.222;2023-03-23T10:40:19;44.92;;;6.75;;
44430;SDS011;30135;47.866;-4.222;2023-03-23T10:42:51;44.42;;;5.85;;
44430;SDS011;30135;47.866;-4.222;2023-03-23T10:45:26;52.70;;;7.65;;
44430;SDS011;30135;47.866;-4.222;2023-03-23T10:48:09;45.78;;;5.72;;
44430;SDS011;30135;47.866;-4.222;2023-03-23T10:50:45;64.63;;;6.68;;
44430;SDS011;30135;47.866;-4.222;2023-03-23T10:53:26;58.05;;;8.25;;
44430;SDS011;30135;47.866;-4.222;2023-03-23T10:55:58;46.55;;;4.80;;
44430;SDS011;30135;47.866;-4.222;2023-03-23T10:58:29;44.92;;;6.95;;
44430;SDS011;30135;47.866;-4.222;2023-03-23T11:00:59;52.38;;;5.97;;
44430;SDS011;30135;47.866;-4.222;2023-03-23T11:03:42;53.90;;;6.27;;
44430;SDS011;30135;47.866;-4.222;2023-03-23T11:09:21;40.72;;;6.53;;
44430;SDS011;30135;47.866;-4.222;2023-03-23T11:12:02;55.25;;;8.25;;
44430;SDS011;30135;47.866;-4.222;2023-03-23T11:14:30;45.92;;;9.15;;
44430;SDS011;30135;47.866;-4.222;2023-03-23T11:17:01;51.13;;;8.15;;
44430;SDS011;30135;47.866;-4.222;2023-03-23T11:19:30;67.45;;;8.85;;
44430;SDS011;30135;47.866;-4.222;2023-03-23T11:24:35;46.08;;;8.45;;
44430;SDS011;30135;47.866;-4.222;2023-03-23T11:27:06;49.10;;;8.73;;
44430;SDS011;30135;47.866;-4.222;2023-03-23T11:29:34;35.80;;;8.10;;
44430;SDS011;30135;47.866;-4.222;2023-03-23T11:34:47;54.95;;;8.38;;
44430;SDS011;30135;47.866;-4.222;2023-03-23T11:37:23;51.63;;;8.18;;
44430;SDS011;30135;47.866;-4.222;2023-03-23T11:45:45;71.63;;;7.78;;
44430;SDS011;30135;47.866;-4.222;2023-03-23T11:56:43;57.03;;;7.68;;
44430;SDS011;30135;47.866;-4.222;2023-03-23T11:59:16;66.18;;;8.25;;
44430;SDS011;30135;47.866;-4.222;2023-03-23T12:02:12;51.67;;;8.52;;
44430;SDS011;30135;47.866;-4.222;2023-03-23T12:08:10;68.22;;;8.77;;
44430;SDS011;30135;47.866;-4.222;2023-03-23T12:11:17;54.15;;;10.70;;
44430;SDS011;30135;47.866;-4.222;2023-03-23T12:14:06;47.88;;;9.27;;
44430;SDS011;30135;47.866;-4.222;2023-03-23T12:22:54;54.17;;;8.57;;
44430;SDS011;30135;47.866;-4.222;2023-03-23T12:25:43;71.68;;;9.43;;
44430;SDS011;30135;47.866;-4.222;2023-03-23T12:31:25;52.40;;;8.07;;
44430;SDS011;30135;47.866;-4.222;2023-03-23T12:40:19;58.60;;;8.73;;
44430;SDS011;30135;47.866;-4.222;2023-03-23T12:44:06;65.32;;;9.05;;
44430;SDS011;30135;47.866;-4.222;2023-03-23T12:49:34;84.53;;;8.32;;
44430;SDS011;30135;47.866;-4.222;2023-03-23T12:52:27;48.28;;;6.07;;
44430;SDS011;30135;47.866;-4.222;2023-03-23T12:57:57;44.80;;;6.57;;
44430;SDS011;30135;47.866;-4.222;2023-03-23T13:03:27;34.65;;;6.43;;
44430;SDS011;30135;47.866;-4.222;2023-03-23T13:06:32;52.38;;;5.68;;
44430;SDS011;30135;47.866;-4.222;2023-03-23T13:09:17;44.35;;;6.85;;
44430;SDS011;30135;47.866;-4.222;2023-03-23T13:11:48;34.80;;;5.55;;
44430;SDS011;30135;47.866;-4.222;2023-03-23T13:14:32;32.72;;;5.53;;
44430;SDS011;30135;47.866;-4.222;2023-03-23T13:17:11;36.50;;;5.20;;
44430;SDS011;30135;47.866;-4.222;2023-03-23T13:20:03;48.92;;;7.32;;
44430;SDS011;30135;47.866;-4.222;2023-03-23T13:23:15;57.35;;;7.25;;
44430;SDS011;30135;47.866;-4.222;2023-03-23T13:26:06;41.85;;;6.97;;
44430;SDS011;30135;47.866;-4.222;2023-03-23T13:31:34;36.38;;;7.28;;
44430;SDS011;30135;47.866;-4.222;2023-03-23T13:34:10;27.50;;;4.78;;
44430;SDS011;30135;47.866;-4.222;2023-03-23T13:37:02;40.55;;;8.50;;
44430;SDS011;30135;47.866;-4.222;2023-03-23T13:42:27;51.28;;;7.03;;
44430;SDS011;30135;47.866;-4.222;2023-03-23T13:45:08;32.35;;;4.57;;
44430;SDS011;30135;47.866;-4.222;2023-03-23T13:48:17;32.17;;;6.88;;
44430;SDS011;30135;47.866;-4.222;2023-03-23T13:50:57;49.45;;;5.75;;
44430;SDS011;30135;47.866;-4.222;2023-03-23T13:53:30;40.88;;;6.35;;
44430;SDS011;30135;47.866;-4.222;2023-03-23T13:56:19;32.95;;;6.40;;
44430;SDS011;30135;47.866;-4.222;2023-03-23T13:59:05;29.60;;;5.82;;
44430;SDS011;30135;47.866;-4.222;2023-03-23T14:01:39;42.88;;;5.15;;
44430;SDS011;30135;47.866;-4.222;2023-03-23T14:04:10;45.22;;;4.88;;
44430;SDS011;30135;47.866;-4.222;2023-03-23T14:06:44;42.97;;;5.68;;
44430;SDS011;30135;47.866;-4.222;2023-03-23T14:09:19;42.60;;;6.13;;
44430;SDS011;30135;47.866;-4.222;2023-03-23T14:12:21;28.63;;;4.50;;
44430;SDS011;30135;47.866;-4.222;2023-03-23T14:14:56;54.47;;;6.63;;
44430;SDS011;30135;47.866;-4.222;2023-03-23T14:17:29;31.98;;;4.35;;
44430;SDS011;30135;47.866;-4.222;2023-03-23T14:20:06;31.48;;;5.80;;
44430;SDS011;30135;47.866;-4.222;2023-03-23T14:22:55;31.55;;;5.25;;
44430;SDS011;30135;47.866;-4.222;2023-03-23T14:25:22;38.88;;;7.18;;
44430;SDS011;30135;47.866;-4.222;2023-03-23T14:27:53;46.55;;;6.85;;
44430;SDS011;30135;47.866;-4.222;2023-03-23T14:30:20;37.08;;;5.10;;
44430;SDS011;30135;47.866;-4.222;2023-03-23T14:32:50;28.63;;;4.22;;
44430;SDS011;30135;47.866;-4.222;2023-03-23T14:35:27;32.17;;;6.00;;
44430;SDS011;30135;47.866;-4.222;2023-03-23T14:37:56;25.50;;;4.68;;
44430;SDS011;30135;47.866;-4.222;2023-03-23T14:40:25;43.17;;;6.28;;
44430;SDS011;30135;47.866;-4.222;2023-03-23T14:42:54;49.28;;;6.10;;
44430;SDS011;30135;47.866;-4.222;2023-03-23T14:45:21;24.05;;;4.80;;
44430;SDS011;30135;47.866;-4.222;2023-03-23T14:47:53;57.55;;;7.32;;
44430;SDS011;30135;47.866;-4.222;2023-03-23T14:53:21;37.95;;;6.18;;
44430;SDS011;30135;47.866;-4.222;2023-03-23T14:55:49;69.80;;;7.15;;
44430;SDS011;30135;47.866;-4.222;2023-03-23T14:58:19;31.73;;;5.13;;
44430;SDS011;30135;47.866;-4.222;2023-03-23T15:00:52;34.20;;;5.30;;
44430;SDS011;30135;47.866;-4.222;2023-03-23T15:03:58;26.55;;;3.65;;
44430;SDS011;30135;47.866;-4.222;2023-03-23T15:06:35;32.67;;;3.75;;
44430;SDS011;30135;47.866;-4.222;2023-03-23T15:09:06;36.05;;;5.13;;
44430;SDS011;30135;47.866;-4.222;2023-03-23T15:11:39;28.45;;;4.45;;
44430;SDS011;30135;47.866;-4.222;2023-03-23T15:14:16;22.85;;;4.20;;
44430;SDS011;30135;47.866;-4.222;2023-03-23T15:16:46;51.38;;;5.40;;
44430;SDS011;30135;47.866;-4.222;2023-03-23T15:19:41;31.35;;;4.95;;
44430;SDS011;30135;47.866;-4.222;2023-03-23T15:25:12;44.40;;;3.90;;
44430;SDS011;30135;47.866;-4.222;2023-03-23T15:27:50;23.77;;;3.63;;
44430;SDS011;30135;47.866;-4.222;2023-03-23T15:32:49;28.33;;;3.67;;
44430;SDS011;30135;47.866;-4.222;2023-03-23T15:35:24;24.58;;;4.70;;
44430;SDS011;30135;47.866;-4.222;2023-03-23T15:37:58;28.75;;;3.50;;
44430;SDS011;30135;47.866;-4.222;2023-03-23T15:40:27;25.35;;;3.67;;
44430;SDS011;30135;47.866;-4.222;2023-03-23T15:43:16;35.95;;;5.35;;
44430;SDS011;30135;47.866;-4.222;2023-03-23T15:48:33;36.67;;;4.35;;
44430;SDS011;30135;47.866;-4.222;2023-03-23T15:51:12;46.67;;;4.70;;
44430;SDS011;30135;47.866;-4.222;2023-03-23T15:53:40;26.45;;;3.90;;
44430;SDS011;30135;47.866;-4.222;2023-03-23T15:56:07;45.65;;;4.65;;
44430;SDS011;30135;47.866;-4.222;2023-03-23T15:58:36;34.53;;;4.47;;
44430;SDS011;30135;47.866;-4.222;2023-03-23T16:01:07;38.95;;;5.07;;
44430;SDS011;30135;47.866;-4.222;2023-03-23T16:06:15;38.60;;;4.40;;
44430;SDS011;30135;47.866;-4.222;2023-03-23T16:08:43;23.95;;;6.03;;
44430;SDS011;30135;47.866;-4.222;2023-03-23T16:11:13;33.75;;;4.15;;
44430;SDS011;30135;47.866;-4.222;2023-03-23T16:13:41;39.88;;;4.82;;
44430;SDS011;30135;47.866;-4.222;2023-03-23T16:16:14;26.33;;;4.68;;
44430;SDS011;30135;47.866;-4.222;2023-03-23T16:18:51;33.67;;;5.13;;
44430;SDS011;30135;47.866;-4.222;2023-03-23T16:21:17;31.40;;;3.80;;
44430;SDS011;30135;47.866;-4.222;2023-03-23T16:23:43;33.15;;;3.90;;
44430;SDS011;30135;47.866;-4.222;2023-03-23T16:26:10;24.58;;;5.20;;
44430;SDS011;30135;47.866;-4.222;2023-03-23T16:28:38;32.55;;;5.13;;
44430;SDS011;30135;47.866;-4.222;2023-03-23T16:31:05;39.85;;;4.82;;
44430;SDS011;30135;47.866;-4.222;2023-03-23T16:33:32;39.15;;;7.15;;
44430;SDS011;30135;47.866;-4.222;2023-03-23T16:35:58;51.92;;;8.23;;
44430;SDS011;30135;47.866;-4.222;2023-03-23T16:38:24;34.75;;;4.55;;
44430;SDS011;30135;47.866;-4.222;2023-03-23T16:40:50;35.05;;;3.55;;
44430;SDS011;30135;47.866;-4.222;2023-03-23T16:43:17;35.60;;;4.97;;
44430;SDS011;30135;47.866;-4.222;2023-03-23T16:45:43;27.00;;;4.18;;
44430;SDS011;30135;47.866;-4.222;2023-03-23T16:48:11;23.08;;;4.18;;
44430;SDS011;30135;47.866;-4.222;2023-03-23T16:50:40;21.20;;;4.03;;